VOTV Airport Information

Runway Information
Runway 14 Length 11148 ft width 150 ft
Elevation 14 ft Threshold 1332 ft Heading 136
Runway 32 Length 11148 ft Width 150 ft
Elevation 14 ft Threshold 522 ft Heading 316
Airport Frequencies
Type ACC Name CON Frequency 125.9 MHZ
Type APP Name APP Frequency 119.6 MHZ
Type ATIS Name ATIS Frequency 126.6 MHZ
Type RDO Name RDO Frequency 1128.5 MHZ
Type TWR Name TWR Frequency 118.1 MHZ
Airport Navaids
Type VOR-DME Name Trivandrum Frequency 115100 KHZ
Airport Weather Information & NOTAM
ADDS - METARS form results

(2042 UTC 25 April 2019)
Data provider http://aviationweather.gov/metar/data/
 
METAR text: VOTV 252030Z 01004KT 4000 HZ FEW015 SCT080 29/25 Q1007 NOSIG
Conditions at: VOTV (THIRUVANANTHAPUR, IN) observed 2030 UTC 25 April 2019
Temperature: 29.0°C (84°F)
Dewpoint: 25.0°C (77°F) [RH = 79%]
Pressure (altimeter): 29.73 inches Hg (1007.0 mb)
Winds: from the N (10 degrees) at 5 MPH (4 knots; 2.1 m/s)
Visibility: 2.49 miles (4.01 km)
Ceiling: at least 12,000 feet AGL
Clouds: few clouds at 1500 feet AGL
scattered clouds at 8000 feet AGL
Weather: HZ  (haze)

METAR text: VOTV 252000Z 34003KT 4000 HZ FEW015 BKN080 29/25 Q1007 NOSIG
Conditions at: VOTV (THIRUVANANTHAPUR, IN) observed 2000 UTC 25 April 2019
Temperature: 29.0°C (84°F)
Dewpoint: 25.0°C (77°F) [RH = 79%]
Pressure (altimeter): 29.73 inches Hg (1007.0 mb)
Winds: from the NNW (340 degrees) at 3 MPH (3 knots; 1.5 m/s)
Visibility: 2.49 miles (4.01 km)
Ceiling: 8000 feet AGL
Clouds: few clouds at 1500 feet AGL
broken clouds at 8000 feet AGL
Weather: HZ  (haze)

Forecast for: VOTV (THIRUVANANTHAPUR, IN)
Text: TAF VOTV 252000Z 2521/2606 32010KT 3000 TSRA BR SCT010 FEW025CB BKN080
Forecast period: 2100 UTC 25 April 2019 to 0400 UTC 26 April 2019
Forecast type: FROM: standard forecast or significant change
Winds: from the NW (320 degrees) at 12 MPH (10 knots; 5.1 m/s)
Visibility: 1.86 miles (2.99 km)
Ceiling: 8000 feet AGL
Clouds: scattered clouds at 1000 feet AGL
few clouds at 2500 feet AGL
broken clouds at 8000 feet AGL
Weather: TSRA BR  (rain associated with thunderstorm(s), mist)
Text: TEMPO 2522/2602 2000 TSRA RA
Forecast period: 2200 UTC 25 April 2019 to 0200 UTC 26 April 2019
Forecast type: TEMPORARY: The following changes expected for less than half the time period
Visibility: 1.24 miles (2.00 km)
Ceiling: unknown
Clouds: missing
Weather: TSRA RA  (rain associated with thunderstorm(s), moderate rain)
Text: BECMG 2604/2605 6000 SCT015 SCT080
Forecast period: 0400 to 0600 UTC 26 April 2019
Forecast type: BECOMING: Conditions expected to become as follows by 0500 UTC 26 April 2019
Winds: from the NW (320 degrees) at 12 MPH (10 knots; 5.1 m/s)
Visibility: 4 miles (6 km)
Ceiling: at least 12,000 feet AGL
Clouds: scattered clouds at 1500 feet AGL
scattered clouds at 8000 feet AGL
Weather: TSRA BR  (rain associated with thunderstorm(s), mist)